sensor_id;sensor_type;location;lat;lon;timestamp;temperature;humidity
10986;DHT22;5546;48.714;8.738;2023-04-30T00:05:52;15.20;93.40
10986;DHT22;5546;48.714;8.738;2023-04-30T00:08:18;15.00;93.80
10986;DHT22;5546;48.714;8.738;2023-04-30T00:13:10;15.00;93.70
10986;DHT22;5546;48.714;8.738;2023-04-30T00:15:38;14.90;94.00
10986;DHT22;5546;48.714;8.738;2023-04-30T00:20:31;15.00;93.80
10986;DHT22;5546;48.714;8.738;2023-04-30T00:27:49;15.20;93.90
10986;DHT22;5546;48.714;8.738;2023-04-30T00:47:16;14.40;94.90
10986;DHT22;5546;48.714;8.738;2023-04-30T00:49:42;14.50;94.80
10986;DHT22;5546;48.714;8.738;2023-04-30T00:54:33;14.40;95.10
10986;DHT22;5546;48.714;8.738;2023-04-30T00:56:59;14.20;95.60
10986;DHT22;5546;48.714;8.738;2023-04-30T01:01:51;14.70;94.80
10986;DHT22;5546;48.714;8.738;2023-04-30T01:06:43;15.00;94.10
10986;DHT22;5546;48.714;8.738;2023-04-30T01:14:27;14.90;94.30
10986;DHT22;5546;48.714;8.738;2023-04-30T01:17:05;14.90;94.30
10986;DHT22;5546;48.714;8.738;2023-04-30T01:19:41;14.80;94.50
10986;DHT22;5546;48.714;8.738;2023-04-30T01:22:11;14.80;94.50
10986;DHT22;5546;48.714;8.738;2023-04-30T01:25:05;14.90;94.30
10986;DHT22;5546;48.714;8.738;2023-04-30T01:30:17;14.90;94.40
10986;DHT22;5546;48.714;8.738;2023-04-30T01:32:43;14.50;94.50
10986;DHT22;5546;48.714;8.738;2023-04-30T01:37:58;14.60;94.50
10986;DHT22;5546;48.714;8.738;2023-04-30T01:40:43;14.70;94.40
10986;DHT22;5546;48.714;8.738;2023-04-30T01:51:32;14.90;93.70
10986;DHT22;5546;48.714;8.738;2023-04-30T01:54:06;14.60;93.90
10986;DHT22;5546;48.714;8.738;2023-04-30T01:56:40;14.60;94.10
10986;DHT22;5546;48.714;8.738;2023-04-30T02:01:36;14.90;93.50
10986;DHT22;5546;48.714;8.738;2023-04-30T02:04:01;14.90;93.50
10986;DHT22;5546;48.714;8.738;2023-04-30T02:06:28;14.90;93.40
10986;DHT22;5546;48.714;8.738;2023-04-30T02:08:54;14.90;93.50
10986;DHT22;5546;48.714;8.738;2023-04-30T02:30:50;14.70;93.10
10986;DHT22;5546;48.714;8.738;2023-04-30T02:33:16;14.60;93.40
10986;DHT22;5546;48.714;8.738;2023-04-30T02:35:41;14.60;93.20
10986;DHT22;5546;48.714;8.738;2023-04-30T02:38:07;14.30;93.60
10986;DHT22;5546;48.714;8.738;2023-04-30T02:42:58;14.30;93.80
10986;DHT22;5546;48.714;8.738;2023-04-30T02:45:25;14.60;93.50
10986;DHT22;5546;48.714;8.738;2023-04-30T02:47:51;14.70;93.40
10986;DHT22;5546;48.714;8.738;2023-04-30T02:52:44;14.60;93.60
10986;DHT22;5546;48.714;8.738;2023-04-30T02:55:10;14.40;93.30
10986;DHT22;5546;48.714;8.738;2023-04-30T03:00:02;14.10;94.10
10986;DHT22;5546;48.714;8.738;2023-04-30T03:04:53;14.10;94.20
10986;DHT22;5546;48.714;8.738;2023-04-30T03:07:19;14.40;94.10
10986;DHT22;5546;48.714;8.738;2023-04-30T03:09:45;14.40;93.90
10986;DHT22;5546;48.714;8.738;2023-04-30T03:21:57;14.00;94.50
10986;DHT22;5546;48.714;8.738;2023-04-30T03:26:49;14.10;94.30
10986;DHT22;5546;48.714;8.738;2023-04-30T03:29:15;14.30;94.10
10986;DHT22;5546;48.714;8.738;2023-04-30T03:38:59;13.90;94.40
10986;DHT22;5546;48.714;8.738;2023-04-30T03:41:25;13.60;95.10
10986;DHT22;5546;48.714;8.738;2023-04-30T03:56:01;13.90;94.50
10986;DHT22;5546;48.714;8.738;2023-04-30T03:58:28;13.90;94.70
10986;DHT22;5546;48.714;8.738;2023-04-30T04:00:54;13.80;94.70
10986;DHT22;5546;48.714;8.738;2023-04-30T04:05:46;13.90;94.90
10986;DHT22;5546;48.714;8.738;2023-04-30T04:08:12;13.80;94.80
10986;DHT22;5546;48.714;8.738;2023-04-30T04:10:38;13.40;95.20
10986;DHT22;5546;48.714;8.738;2023-04-30T04:13:04;13.20;95.80
10986;DHT22;5546;48.714;8.738;2023-04-30T04:20:23;13.20;95.70
10986;DHT22;5546;48.714;8.738;2023-04-30T04:27:42;12.90;96.20
10986;DHT22;5546;48.714;8.738;2023-04-30T04:30:08;12.90;96.70
10986;DHT22;5546;48.714;8.738;2023-04-30T04:32:34;13.30;96.20
10986;DHT22;5546;48.714;8.738;2023-04-30T04:35:06;13.50;95.70
10986;DHT22;5546;48.714;8.738;2023-04-30T04:39:58;13.50;95.70
10986;DHT22;5546;48.714;8.738;2023-04-30T04:42:24;13.50;95.70
10986;DHT22;5546;48.714;8.738;2023-04-30T04:44:49;13.30;96.00
10986;DHT22;5546;48.714;8.738;2023-04-30T04:52:10;13.20;96.30
10986;DHT22;5546;48.714;8.738;2023-04-30T04:54:35;13.40;95.70
10986;DHT22;5546;48.714;8.738;2023-04-30T04:57:01;13.30;96.00
10986;DHT22;5546;48.714;8.738;2023-04-30T04:59:27;13.40;95.90
10986;DHT22;5546;48.714;8.738;2023-04-30T05:01:53;13.60;95.70
10986;DHT22;5546;48.714;8.738;2023-04-30T05:11:37;14.10;95.30
10986;DHT22;5546;48.714;8.738;2023-04-30T05:23:47;14.70;94.00
10986;DHT22;5546;48.714;8.738;2023-04-30T05:38:22;15.30;92.60
10986;DHT22;5546;48.714;8.738;2023-04-30T05:43:14;15.30;92.70
10986;DHT22;5546;48.714;8.738;2023-04-30T05:45:39;15.60;92.40
10986;DHT22;5546;48.714;8.738;2023-04-30T05:48:05;16.10;91.40
10986;DHT22;5546;48.714;8.738;2023-04-30T05:55:22;16.70;90.60
10986;DHT22;5546;48.714;8.738;2023-04-30T05:57:48;17.20;90.10
10986;DHT22;5546;48.714;8.738;2023-04-30T06:00:13;17.20;87.60
10986;DHT22;5546;48.714;8.738;2023-04-30T06:02:40;17.10;88.90
10986;DHT22;5546;48.714;8.738;2023-04-30T06:05:07;17.30;89.10
10986;DHT22;5546;48.714;8.738;2023-04-30T06:07:33;17.90;86.40
10986;DHT22;5546;48.714;8.738;2023-04-30T06:12:25;19.00;79.70
10986;DHT22;5546;48.714;8.738;2023-04-30T06:14:51;19.50;80.40
10986;DHT22;5546;48.714;8.738;2023-04-30T06:17:16;20.90;76.70
10986;DHT22;5546;48.714;8.738;2023-04-30T06:19:42;22.20;72.20
10986;DHT22;5546;48.714;8.738;2023-04-30T06:22:07;22.10;72.70
10986;DHT22;5546;48.714;8.738;2023-04-30T06:24:33;23.10;68.20
10986;DHT22;5546;48.714;8.738;2023-04-30T06:26:58;21.80;69.60
10986;DHT22;5546;48.714;8.738;2023-04-30T06:29:24;20.20;73.20
10986;DHT22;5546;48.714;8.738;2023-04-30T06:31:50;19.70;74.90
10986;DHT22;5546;48.714;8.738;2023-04-30T06:34:16;19.10;76.70
10986;DHT22;5546;48.714;8.738;2023-04-30T06:36:41;18.60;78.00
10986;DHT22;5546;48.714;8.738;2023-04-30T07:01:00;16.90;84.20
10986;DHT22;5546;48.714;8.738;2023-04-30T07:03:26;16.90;84.50
10986;DHT22;5546;48.714;8.738;2023-04-30T07:05:52;16.60;85.30
10986;DHT22;5546;48.714;8.738;2023-04-30T07:08:18;16.80;85.20
10986;DHT22;5546;48.714;8.738;2023-04-30T07:10:43;16.50;85.30
10986;DHT22;5546;48.714;8.738;2023-04-30T07:13:09;16.70;85.90
10986;DHT22;5546;48.714;8.738;2023-04-30T07:18:01;17.70;82.10
10986;DHT22;5546;48.714;8.738;2023-04-30T07:20:28;18.40;80.90
10986;DHT22;5546;48.714;8.738;2023-04-30T07:22:54;18.70;79.00
10986;DHT22;5546;48.714;8.738;2023-04-30T07:25:20;19.00;77.40
10986;DHT22;5546;48.714;8.738;2023-04-30T07:27:45;19.00;77.40
10986;DHT22;5546;48.714;8.738;2023-04-30T07:30:11;19.60;75.80
10986;DHT22;5546;48.714;8.738;2023-04-30T07:32:37;19.20;75.80
10986;DHT22;5546;48.714;8.738;2023-04-30T07:35:05;18.60;77.70
10986;DHT22;5546;48.714;8.738;2023-04-30T07:37:31;19.00;77.80
10986;DHT22;5546;48.714;8.738;2023-04-30T07:39:56;19.30;77.20
10986;DHT22;5546;48.714;8.738;2023-04-30T07:42:22;20.00;75.00
10986;DHT22;5546;48.714;8.738;2023-04-30T07:44:48;20.70;72.50
10986;DHT22;5546;48.714;8.738;2023-04-30T07:47:14;21.20;71.00
10986;DHT22;5546;48.714;8.738;2023-04-30T07:49:39;21.60;69.10
10986;DHT22;5546;48.714;8.738;2023-04-30T07:52:05;21.50;70.10
10986;DHT22;5546;48.714;8.738;2023-04-30T07:54:32;21.60;69.10
10986;DHT22;5546;48.714;8.738;2023-04-30T07:57:00;21.60;69.00
10986;DHT22;5546;48.714;8.738;2023-04-30T07:59:27;20.70;71.20
10986;DHT22;5546;48.714;8.738;2023-04-30T08:01:53;20.20;69.70
10986;DHT22;5546;48.714;8.738;2023-04-30T08:04:18;20.00;72.20
10986;DHT22;5546;48.714;8.738;2023-04-30T08:06:44;20.20;70.70
10986;DHT22;5546;48.714;8.738;2023-04-30T08:11:35;18.70;75.70
10986;DHT22;5546;48.714;8.738;2023-04-30T08:14:01;18.30;77.00
10986;DHT22;5546;48.714;8.738;2023-04-30T08:16:27;18.30;78.50
10986;DHT22;5546;48.714;8.738;2023-04-30T08:18:53;17.60;78.20
10986;DHT22;5546;48.714;8.738;2023-04-30T08:23:44;19.30;75.20
10986;DHT22;5546;48.714;8.738;2023-04-30T08:26:10;19.80;72.00
10986;DHT22;5546;48.714;8.738;2023-04-30T08:28:35;20.00;71.20
10986;DHT22;5546;48.714;8.738;2023-04-30T08:31:01;19.90;69.70
10986;DHT22;5546;48.714;8.738;2023-04-30T08:33:26;20.60;68.40
10986;DHT22;5546;48.714;8.738;2023-04-30T08:35:53;21.20;67.60
10986;DHT22;5546;48.714;8.738;2023-04-30T08:38:19;21.70;65.70
10986;DHT22;5546;48.714;8.738;2023-04-30T08:40:50;21.90;64.40
10986;DHT22;5546;48.714;8.738;2023-04-30T08:43:17;22.30;63.20
10986;DHT22;5546;48.714;8.738;2023-04-30T08:45:44;21.70;64.40
10986;DHT22;5546;48.714;8.738;2023-04-30T08:48:10;22.00;63.60
10986;DHT22;5546;48.714;8.738;2023-04-30T08:50:36;21.30;64.70
10986;DHT22;5546;48.714;8.738;2023-04-30T08:53:02;20.90;65.20
10986;DHT22;5546;48.714;8.738;2023-04-30T08:55:28;20.60;65.40
10986;DHT22;5546;48.714;8.738;2023-04-30T09:00:20;19.10;69.70
10986;DHT22;5546;48.714;8.738;2023-04-30T09:02:47;19.10;70.20
10986;DHT22;5546;48.714;8.738;2023-04-30T09:05:14;19.40;70.20
10986;DHT22;5546;48.714;8.738;2023-04-30T09:07:41;19.50;68.50
10986;DHT22;5546;48.714;8.738;2023-04-30T09:10:20;19.10;67.20
10986;DHT22;5546;48.714;8.738;2023-04-30T09:13:01;18.90;67.80
10986;DHT22;5546;48.714;8.738;2023-04-30T09:15:27;19.10;67.60
10986;DHT22;5546;48.714;8.738;2023-04-30T09:18:14;19.40;66.90
10986;DHT22;5546;48.714;8.738;2023-04-30T09:20:56;19.40;66.50
10986;DHT22;5546;48.714;8.738;2023-04-30T09:23:22;18.70;67.60
10986;DHT22;5546;48.714;8.738;2023-04-30T09:28:14;18.60;67.60
10986;DHT22;5546;48.714;8.738;2023-04-30T09:30:40;18.60;67.50
10986;DHT22;5546;48.714;8.738;2023-04-30T09:33:06;18.20;67.80
10986;DHT22;5546;48.714;8.738;2023-04-30T09:35:34;18.20;68.20
10986;DHT22;5546;48.714;8.738;2023-04-30T09:38:00;18.30;67.60
10986;DHT22;5546;48.714;8.738;2023-04-30T09:40:42;18.60;66.90
10986;DHT22;5546;48.714;8.738;2023-04-30T09:43:09;18.30;67.80
10986;DHT22;5546;48.714;8.738;2023-04-30T09:45:53;18.10;67.90
10986;DHT22;5546;48.714;8.738;2023-04-30T09:48:23;17.90;67.80
10986;DHT22;5546;48.714;8.738;2023-04-30T09:50:49;17.50;68.80
10986;DHT22;5546;48.714;8.738;2023-04-30T09:55:49;17.70;68.30
10986;DHT22;5546;48.714;8.738;2023-04-30T09:58:16;17.80;68.00
10986;DHT22;5546;48.714;8.738;2023-04-30T10:00:44;18.30;66.50
10986;DHT22;5546;48.714;8.738;2023-04-30T10:03:11;18.20;66.50
10986;DHT22;5546;48.714;8.738;2023-04-30T10:05:41;18.40;66.10
10986;DHT22;5546;48.714;8.738;2023-04-30T10:08:14;18.20;66.50
10986;DHT22;5546;48.714;8.738;2023-04-30T10:10:46;18.70;65.70
10986;DHT22;5546;48.714;8.738;2023-04-30T10:13:15;19.20;63.70
10986;DHT22;5546;48.714;8.738;2023-04-30T10:15:47;19.30;63.50
10986;DHT22;5546;48.714;8.738;2023-04-30T10:18:19;19.40;62.80
10986;DHT22;5546;48.714;8.738;2023-04-30T10:20:48;19.50;63.20
10986;DHT22;5546;48.714;8.738;2023-04-30T10:25:41;19.80;62.80
10986;DHT22;5546;48.714;8.738;2023-04-30T10:28:08;19.80;62.30
10986;DHT22;5546;48.714;8.738;2023-04-30T10:33:18;19.80;62.60
10986;DHT22;5546;48.714;8.738;2023-04-30T10:36:06;20.00;62.20
10986;DHT22;5546;48.714;8.738;2023-04-30T10:38:35;19.40;63.30
10986;DHT22;5546;48.714;8.738;2023-04-30T10:41:01;19.50;63.50
10986;DHT22;5546;48.714;8.738;2023-04-30T10:43:29;19.90;61.20
10986;DHT22;5546;48.714;8.738;2023-04-30T10:45:56;19.40;62.50
10986;DHT22;5546;48.714;8.738;2023-04-30T10:48:23;19.90;63.10
10986;DHT22;5546;48.714;8.738;2023-04-30T10:50:56;20.30;62.60
10986;DHT22;5546;48.714;8.738;2023-04-30T10:55:57;20.00;61.10
10986;DHT22;5546;48.714;8.738;2023-04-30T10:58:34;19.90;62.10
10986;DHT22;5546;48.714;8.738;2023-04-30T11:03:31;19.90;62.20
10986;DHT22;5546;48.714;8.738;2023-04-30T11:05:58;20.80;59.60
10986;DHT22;5546;48.714;8.738;2023-04-30T11:08:32;20.80;58.90
10986;DHT22;5546;48.714;8.738;2023-04-30T11:10:59;20.40;59.70
10986;DHT22;5546;48.714;8.738;2023-04-30T11:13:26;20.80;59.70
10986;DHT22;5546;48.714;8.738;2023-04-30T11:15:52;20.60;59.80
10986;DHT22;5546;48.714;8.738;2023-04-30T11:18:18;19.90;61.90
10986;DHT22;5546;48.714;8.738;2023-04-30T11:20:50;19.80;63.10
10986;DHT22;5546;48.714;8.738;2023-04-30T11:23:22;19.40;62.20
10986;DHT22;5546;48.714;8.738;2023-04-30T11:25:48;20.00;60.60
10986;DHT22;5546;48.714;8.738;2023-04-30T11:28:25;20.50;60.00
10986;DHT22;5546;48.714;8.738;2023-04-30T11:30:57;20.50;60.10
10986;DHT22;5546;48.714;8.738;2023-04-30T11:33:28;20.20;60.40
10986;DHT22;5546;48.714;8.738;2023-04-30T11:35:55;20.20;60.60
10986;DHT22;5546;48.714;8.738;2023-04-30T11:38:33;20.30;61.20
10986;DHT22;5546;48.714;8.738;2023-04-30T11:41:00;20.20;60.20
10986;DHT22;5546;48.714;8.738;2023-04-30T11:43:28;19.20;62.80
10986;DHT22;5546;48.714;8.738;2023-04-30T11:48:33;19.30;62.20
10986;DHT22;5546;48.714;8.738;2023-04-30T11:51:02;20.10;60.40
10986;DHT22;5546;48.714;8.738;2023-04-30T11:53:28;20.30;59.30
10986;DHT22;5546;48.714;8.738;2023-04-30T11:55:55;20.10;59.40
10986;DHT22;5546;48.714;8.738;2023-04-30T11:58:21;20.60;59.40
10986;DHT22;5546;48.714;8.738;2023-04-30T12:00:47;20.50;58.30
10986;DHT22;5546;48.714;8.738;2023-04-30T12:03:14;20.10;59.70
10986;DHT22;5546;48.714;8.738;2023-04-30T12:05:41;20.10;59.60
10986;DHT22;5546;48.714;8.738;2023-04-30T12:08:07;19.90;60.00
10986;DHT22;5546;48.714;8.738;2023-04-30T12:10:34;19.90;59.60
10986;DHT22;5546;48.714;8.738;2023-04-30T12:13:01;19.30;59.20
10986;DHT22;5546;48.714;8.738;2023-04-30T12:15:27;19.20;60.50
10986;DHT22;5546;48.714;8.738;2023-04-30T12:17:57;19.10;60.60
10986;DHT22;5546;48.714;8.738;2023-04-30T12:20:26;19.40;60.00
10986;DHT22;5546;48.714;8.738;2023-04-30T12:22:52;19.30;60.60
10986;DHT22;5546;48.714;8.738;2023-04-30T12:25:21;19.40;59.60
10986;DHT22;5546;48.714;8.738;2023-04-30T12:27:48;19.80;59.00
10986;DHT22;5546;48.714;8.738;2023-04-30T12:30:14;20.20;58.90
10986;DHT22;5546;48.714;8.738;2023-04-30T12:32:47;20.00;58.60
10986;DHT22;5546;48.714;8.738;2023-04-30T12:35:15;20.40;58.30
10986;DHT22;5546;48.714;8.738;2023-04-30T12:37:44;21.00;57.20
10986;DHT22;5546;48.714;8.738;2023-04-30T12:40:12;22.10;55.90
10986;DHT22;5546;48.714;8.738;2023-04-30T12:42:38;22.00;55.20
10986;DHT22;5546;48.714;8.738;2023-04-30T12:47:30;21.30;55.90
10986;DHT22;5546;48.714;8.738;2023-04-30T12:49:55;21.20;56.00
10986;DHT22;5546;48.714;8.738;2023-04-30T12:52:25;21.50;55.00
10986;DHT22;5546;48.714;8.738;2023-04-30T12:54:51;21.60;55.50
10986;DHT22;5546;48.714;8.738;2023-04-30T12:59:56;21.20;55.30
10986;DHT22;5546;48.714;8.738;2023-04-30T13:02:25;21.30;55.30
10986;DHT22;5546;48.714;8.738;2023-04-30T13:04:51;21.60;54.50
10986;DHT22;5546;48.714;8.738;2023-04-30T13:07:17;20.60;56.10
10986;DHT22;5546;48.714;8.738;2023-04-30T13:09:43;20.90;56.40
10986;DHT22;5546;48.714;8.738;2023-04-30T13:12:08;21.70;54.50
10986;DHT22;5546;48.714;8.738;2023-04-30T13:14:34;22.30;53.90
10986;DHT22;5546;48.714;8.738;2023-04-30T13:17:01;22.50;53.40
10986;DHT22;5546;48.714;8.738;2023-04-30T13:19:30;22.00;52.90
10986;DHT22;5546;48.714;8.738;2023-04-30T13:21:56;21.90;53.60
10986;DHT22;5546;48.714;8.738;2023-04-30T13:24:21;21.30;54.70
10986;DHT22;5546;48.714;8.738;2023-04-30T13:26:47;20.70;55.90
10986;DHT22;5546;48.714;8.738;2023-04-30T13:29:13;20.40;56.90
10986;DHT22;5546;48.714;8.738;2023-04-30T13:34:07;22.40;54.30
10986;DHT22;5546;48.714;8.738;2023-04-30T13:36:33;23.00;52.60
10986;DHT22;5546;48.714;8.738;2023-04-30T13:38:59;23.00;53.00
10986;DHT22;5546;48.714;8.738;2023-04-30T13:41:24;23.90;51.80
10986;DHT22;5546;48.714;8.738;2023-04-30T13:43:51;23.00;52.10
10986;DHT22;5546;48.714;8.738;2023-04-30T13:51:12;22.10;55.30
10986;DHT22;5546;48.714;8.738;2023-04-30T13:53:37;22.40;54.40
10986;DHT22;5546;48.714;8.738;2023-04-30T13:56:05;22.50;54.40
10986;DHT22;5546;48.714;8.738;2023-04-30T13:58:31;21.90;54.80
10986;DHT22;5546;48.714;8.738;2023-04-30T14:00:57;21.10;55.20
10986;DHT22;5546;48.714;8.738;2023-04-30T14:03:22;20.10;58.40
10986;DHT22;5546;48.714;8.738;2023-04-30T14:08:14;20.60;57.20
10986;DHT22;5546;48.714;8.738;2023-04-30T14:10:39;21.00;57.10
10986;DHT22;5546;48.714;8.738;2023-04-30T14:15:31;20.90;56.00
10986;DHT22;5546;48.714;8.738;2023-04-30T14:17:57;21.10;56.50
10986;DHT22;5546;48.714;8.738;2023-04-30T14:22:49;21.30;55.40
10986;DHT22;5546;48.714;8.738;2023-04-30T14:25:15;21.60;54.70
10986;DHT22;5546;48.714;8.738;2023-04-30T14:32:33;21.90;54.00
10986;DHT22;5546;48.714;8.738;2023-04-30T14:34:59;22.30;53.80
10986;DHT22;5546;48.714;8.738;2023-04-30T14:37:24;22.20;54.20
10986;DHT22;5546;48.714;8.738;2023-04-30T14:39:50;23.60;52.50
10986;DHT22;5546;48.714;8.738;2023-04-30T14:42:16;23.70;50.60
10986;DHT22;5546;48.714;8.738;2023-04-30T14:44:42;23.70;51.20
10986;DHT22;5546;48.714;8.738;2023-04-30T14:47:08;23.10;51.50
10986;DHT22;5546;48.714;8.738;2023-04-30T14:49:33;21.90;52.70
10986;DHT22;5546;48.714;8.738;2023-04-30T14:51:59;21.30;53.40
10986;DHT22;5546;48.714;8.738;2023-04-30T14:56:51;21.30;53.60
10986;DHT22;5546;48.714;8.738;2023-04-30T15:04:08;21.70;54.20
10986;DHT22;5546;48.714;8.738;2023-04-30T15:06:34;22.40;53.20
10986;DHT22;5546;48.714;8.738;2023-04-30T15:08:59;22.40;53.30
10986;DHT22;5546;48.714;8.738;2023-04-30T15:11:25;22.70;51.80
10986;DHT22;5546;48.714;8.738;2023-04-30T15:13:52;22.20;52.30
10986;DHT22;5546;48.714;8.738;2023-04-30T15:16:19;22.20;52.50
10986;DHT22;5546;48.714;8.738;2023-04-30T15:21:11;22.20;52.40
10986;DHT22;5546;48.714;8.738;2023-04-30T15:23:37;21.40;54.10
10986;DHT22;5546;48.714;8.738;2023-04-30T15:26:02;21.10;54.10
10986;DHT22;5546;48.714;8.738;2023-04-30T15:33:20;20.20;55.80
10986;DHT22;5546;48.714;8.738;2023-04-30T15:35:48;20.00;56.80
10986;DHT22;5546;48.714;8.738;2023-04-30T15:40:40;19.90;57.30
10986;DHT22;5546;48.714;8.738;2023-04-30T15:43:05;20.00;56.50
10986;DHT22;5546;48.714;8.738;2023-04-30T15:45:32;20.30;56.40
10986;DHT22;5546;48.714;8.738;2023-04-30T15:47:58;20.50;55.80
10986;DHT22;5546;48.714;8.738;2023-04-30T15:50:25;20.60;56.00
10986;DHT22;5546;48.714;8.738;2023-04-30T15:55:16;20.40;55.20
10986;DHT22;5546;48.714;8.738;2023-04-30T15:57:42;20.10;56.50
10986;DHT22;5546;48.714;8.738;2023-04-30T16:00:08;20.70;56.30
10986;DHT22;5546;48.714;8.738;2023-04-30T16:09:53;20.40;56.60
10986;DHT22;5546;48.714;8.738;2023-04-30T16:12:18;20.30;57.30
10986;DHT22;5546;48.714;8.738;2023-04-30T16:14:44;20.20;57.20
10986;DHT22;5546;48.714;8.738;2023-04-30T16:17:09;20.50;56.90
10986;DHT22;5546;48.714;8.738;2023-04-30T16:19:35;20.70;57.30
10986;DHT22;5546;48.714;8.738;2023-04-30T16:22:01;20.20;56.70
10986;DHT22;5546;48.714;8.738;2023-04-30T16:29:41;20.00;57.60
10986;DHT22;5546;48.714;8.738;2023-04-30T16:32:07;20.20;59.50
10986;DHT22;5546;48.714;8.738;2023-04-30T16:41:51;20.00;57.40
10986;DHT22;5546;48.714;8.738;2023-04-30T16:44:16;20.30;56.70
10986;DHT22;5546;48.714;8.738;2023-04-30T16:49:07;19.60;57.70
10986;DHT22;5546;48.714;8.738;2023-04-30T16:51:33;19.60;57.50
10986;DHT22;5546;48.714;8.738;2023-04-30T16:53:59;19.60;57.70
10986;DHT22;5546;48.714;8.738;2023-04-30T16:56:25;20.00;57.40
10986;DHT22;5546;48.714;8.738;2023-04-30T17:03:43;19.50;58.20
10986;DHT22;5546;48.714;8.738;2023-04-30T17:08:34;19.80;58.10
10986;DHT22;5546;48.714;8.738;2023-04-30T17:11:00;19.70;58.00
10986;DHT22;5546;48.714;8.738;2023-04-30T17:15:55;19.50;58.90
10986;DHT22;5546;48.714;8.738;2023-04-30T17:18:24;19.60;58.80
10986;DHT22;5546;48.714;8.738;2023-04-30T17:20:50;19.40;58.70
10986;DHT22;5546;48.714;8.738;2023-04-30T17:23:16;19.20;59.30
10986;DHT22;5546;48.714;8.738;2023-04-30T17:25:42;19.30;59.10
10986;DHT22;5546;48.714;8.738;2023-04-30T17:33:00;19.00;59.80
10986;DHT22;5546;48.714;8.738;2023-04-30T17:35:26;18.90;60.50
10986;DHT22;5546;48.714;8.738;2023-04-30T17:37:52;19.20;59.60
10986;DHT22;5546;48.714;8.738;2023-04-30T17:40:18;19.20;62.00
10986;DHT22;5546;48.714;8.738;2023-04-30T17:42:43;19.50;63.10
10986;DHT22;5546;48.714;8.738;2023-04-30T17:45:10;19.20;63.40
10986;DHT22;5546;48.714;8.738;2023-04-30T17:47:35;19.00;66.40
10986;DHT22;5546;48.714;8.738;2023-04-30T17:52:29;19.10;65.50
10986;DHT22;5546;48.714;8.738;2023-04-30T17:54:55;19.30;64.80
10986;DHT22;5546;48.714;8.738;2023-04-30T17:57:21;19.20;66.50
10986;DHT22;5546;48.714;8.738;2023-04-30T17:59:54;18.80;66.00
10986;DHT22;5546;48.714;8.738;2023-04-30T18:02:20;18.80;66.40
10986;DHT22;5546;48.714;8.738;2023-04-30T18:07:14;18.20;72.50
10986;DHT22;5546;48.714;8.738;2023-04-30T18:09:39;18.00;72.00
10986;DHT22;5546;48.714;8.738;2023-04-30T18:12:06;18.00;71.20
10986;DHT22;5546;48.714;8.738;2023-04-30T18:19:23;17.70;71.80
10986;DHT22;5546;48.714;8.738;2023-04-30T18:21:49;17.50;74.20
10986;DHT22;5546;48.714;8.738;2023-04-30T18:24:17;17.40;74.70
10986;DHT22;5546;48.714;8.738;2023-04-30T18:26:44;17.00;76.20
10986;DHT22;5546;48.714;8.738;2023-04-30T18:29:09;17.10;75.60
10986;DHT22;5546;48.714;8.738;2023-04-30T18:31:35;16.90;75.40
10986;DHT22;5546;48.714;8.738;2023-04-30T18:34:02;16.60;77.10
10986;DHT22;5546;48.714;8.738;2023-04-30T18:36:29;16.60;77.40
10986;DHT22;5546;48.714;8.738;2023-04-30T18:48:39;15.50;81.50
10986;DHT22;5546;48.714;8.738;2023-04-30T18:51:05;15.70;81.80
10986;DHT22;5546;48.714;8.738;2023-04-30T19:10:34;15.00;83.00
10986;DHT22;5546;48.714;8.738;2023-04-30T19:13:00;15.10;83.70
10986;DHT22;5546;48.714;8.738;2023-04-30T19:15:26;15.20;83.20
10986;DHT22;5546;48.714;8.738;2023-04-30T19:20:20;15.40;82.40
10986;DHT22;5546;48.714;8.738;2023-04-30T19:25:12;15.30;83.90
10986;DHT22;5546;48.714;8.738;2023-04-30T19:30:04;16.00;82.40
10986;DHT22;5546;48.714;8.738;2023-04-30T19:32:30;16.20;81.70
10986;DHT22;5546;48.714;8.738;2023-04-30T19:34:55;15.90;82.00
10986;DHT22;5546;48.714;8.738;2023-04-30T19:37:23;16.10;82.40
10986;DHT22;5546;48.714;8.738;2023-04-30T19:42:15;15.70;84.30
10986;DHT22;5546;48.714;8.738;2023-04-30T19:49:33;15.60;83.70
10986;DHT22;5546;48.714;8.738;2023-04-30T19:56:51;15.60;83.80
10986;DHT22;5546;48.714;8.738;2023-04-30T19:59:17;15.70;84.60
10986;DHT22;5546;48.714;8.738;2023-04-30T20:01:43;15.90;83.90
10986;DHT22;5546;48.714;8.738;2023-04-30T20:04:09;15.80;84.10
10986;DHT22;5546;48.714;8.738;2023-04-30T20:13:54;15.80;85.30
10986;DHT22;5546;48.714;8.738;2023-04-30T20:16:19;15.90;84.60
10986;DHT22;5546;48.714;8.738;2023-04-30T20:18:45;16.00;84.10
10986;DHT22;5546;48.714;8.738;2023-04-30T20:21:11;15.90;85.00
10986;DHT22;5546;48.714;8.738;2023-04-30T20:26:08;15.30;87.20
10986;DHT22;5546;48.714;8.738;2023-04-30T20:31:01;15.60;86.70
10986;DHT22;5546;48.714;8.738;2023-04-30T20:35:53;15.70;86.00
10986;DHT22;5546;48.714;8.738;2023-04-30T20:38:19;15.60;85.80
10986;DHT22;5546;48.714;8.738;2023-04-30T20:40:46;15.40;85.90
10986;DHT22;5546;48.714;8.738;2023-04-30T20:43:11;14.70;88.70
10986;DHT22;5546;48.714;8.738;2023-04-30T20:45:38;14.90;89.00
10986;DHT22;5546;48.714;8.738;2023-04-30T20:48:04;15.00;88.00
10986;DHT22;5546;48.714;8.738;2023-04-30T20:50:31;15.10;87.50
10986;DHT22;5546;48.714;8.738;2023-04-30T21:00:15;14.90;87.60
10986;DHT22;5546;48.714;8.738;2023-04-30T21:10:03;14.80;88.00
10986;DHT22;5546;48.714;8.738;2023-04-30T21:14:59;14.80;88.50
10986;DHT22;5546;48.714;8.738;2023-04-30T21:17:25;14.90;87.90
10986;DHT22;5546;48.714;8.738;2023-04-30T21:19:51;14.60;88.40
10986;DHT22;5546;48.714;8.738;2023-04-30T21:24:43;14.50;88.70
10986;DHT22;5546;48.714;8.738;2023-04-30T21:29:35;14.00;90.10
10986;DHT22;5546;48.714;8.738;2023-04-30T21:32:01;14.00;90.10
10986;DHT22;5546;48.714;8.738;2023-04-30T21:34:29;14.10;90.00
10986;DHT22;5546;48.714;8.738;2023-04-30T21:36:55;14.20;89.70
10986;DHT22;5546;48.714;8.738;2023-04-30T21:39:21;14.10;90.00
10986;DHT22;5546;48.714;8.738;2023-04-30T21:44:13;14.00;89.10
10986;DHT22;5546;48.714;8.738;2023-04-30T21:46:39;13.80;90.00
10986;DHT22;5546;48.714;8.738;2023-04-30T21:51:31;13.70;90.00
10986;DHT22;5546;48.714;8.738;2023-04-30T21:58:48;13.60;90.00
10986;DHT22;5546;48.714;8.738;2023-04-30T22:03:40;13.40;90.20
10986;DHT22;5546;48.714;8.738;2023-04-30T22:06:06;13.20;90.20
10986;DHT22;5546;48.714;8.738;2023-04-30T22:08:32;13.40;90.10
10986;DHT22;5546;48.714;8.738;2023-04-30T22:10:59;13.50;89.80
10986;DHT22;5546;48.714;8.738;2023-04-30T22:13:25;13.50;89.70
10986;DHT22;5546;48.714;8.738;2023-04-30T22:15:51;13.40;89.40
10986;DHT22;5546;48.714;8.738;2023-04-30T22:30:27;13.00;90.10
10986;DHT22;5546;48.714;8.738;2023-04-30T22:32:56;12.20;91.60
10986;DHT22;5546;48.714;8.738;2023-04-30T22:42:41;12.90;91.20
10986;DHT22;5546;48.714;8.738;2023-04-30T22:45:08;12.80;91.10
10986;DHT22;5546;48.714;8.738;2023-04-30T22:47:34;12.70;91.20
10986;DHT22;5546;48.714;8.738;2023-04-30T22:50:00;12.50;91.30
10986;DHT22;5546;48.714;8.738;2023-04-30T22:52:27;12.70;91.30
10986;DHT22;5546;48.714;8.738;2023-04-30T22:57:19;12.90;91.20
10986;DHT22;5546;48.714;8.738;2023-04-30T23:07:05;13.10;90.90